Time;durP1;ratioP1;P1;durP2;ratioP2;P2;SDS_P1;SDS_P2;PMS_P1;PMS_P2;Temp;Humidity;BMP_temperature;BMP_pressure;BME280_temperature;BME280_humidity;BME280_pressure;Samples;Min_cycle;Max_cycle;Signal;HPM_P1;HPM_P2
2022/08/07 00:00:44;;;;;;;0.80;0.80;;;26.60;35.80;;;;;;5065517;28;45219;-70
2022/08/07 00:03:11;;;;;;;0.90;0.90;;;26.60;35.80;;;;;;5065514;28;45244;-70
2022/08/07 00:05:38;;;;;;;0.82;0.82;;;26.50;35.80;;;;;;5066397;28;45357;-70
2022/08/07 00:08:05;;;;;;;1.30;1.20;;;26.60;35.90;;;;;;5065872;28;46719;-71
2022/08/07 00:10:32;;;;;;;0.77;0.77;;;26.50;35.90;;;;;;5065795;28;45352;-70
2022/08/07 00:13:04;;;;;;;1.25;0.88;;;26.50;35.80;;;;;;5066031;28;45119;-70
2022/08/07 00:15:31;;;;;;;1.10;1.00;;;26.50;35.80;;;;;;5066143;28;45276;-70
2022/08/07 00:17:59;;;;;;;0.75;0.70;;;26.50;35.80;;;;;;5065686;28;46492;-70
2022/08/07 00:20:26;;;;;;;0.98;0.90;;;26.50;36.40;;;;;;5076116;27;45340;-70
2022/08/07 00:22:53;;;;;;;1.98;0.98;;;26.50;35.80;;;;;;5089326;28;45251;-70
2022/08/07 00:25:20;;;;;;;1.27;0.90;;;26.40;35.80;;;;;;5089852;28;45439;-71
2022/08/07 00:27:47;;;;;;;0.90;0.90;;;26.40;35.70;;;;;;5089426;28;45456;-70
2022/08/07 00:30:14;;;;;;;0.80;0.80;;;26.40;35.70;;;;;;5089513;28;45226;-70
2022/08/07 00:32:40;;;;;;;0.80;0.80;;;26.40;35.80;;;;;;5089509;28;45415;-70
2022/08/07 00:35:09;;;;;;;0.80;0.80;;;26.40;35.70;;;;;;5089760;28;45131;-70
2022/08/07 00:37:36;;;;;;;1.00;0.63;;;26.40;35.80;;;;;;5089241;28;46757;-70
2022/08/07 00:40:03;;;;;;;1.27;0.82;;;26.40;35.70;;;;;;5089099;28;45249;-70
2022/08/07 00:42:30;;;;;;;0.75;0.75;;;26.30;35.70;;;;;;5089444;28;45253;-70
2022/08/07 00:44:56;;;;;;;0.75;0.73;;;26.30;35.70;;;;;;5089598;28;45405;-69
2022/08/07 00:47:24;;;;;;;0.98;0.82;;;26.30;35.70;;;;;;5088925;28;47282;-70
2022/08/07 00:49:51;;;;;;;1.10;0.85;;;26.30;35.60;;;;;;5088528;28;45253;-70
2022/08/07 00:52:19;;;;;;;0.80;0.80;;;26.30;35.70;;;;;;5089335;28;45285;-70
2022/08/07 00:54:45;;;;;;;0.63;0.63;;;26.30;36.30;;;;;;5089329;28;45126;-70
2022/08/07 00:57:12;;;;;;;1.05;0.75;;;26.20;35.70;;;;;;5089006;28;47259;-70
2022/08/07 00:59:39;;;;;;;0.90;0.90;;;26.20;35.70;;;;;;5089086;28;45302;-70
2022/08/07 01:02:07;;;;;;;0.75;0.75;;;26.20;35.70;;;;;;5089167;28;45289;-70
2022/08/07 01:04:33;;;;;;;0.60;0.60;;;26.20;35.70;;;;;;5086615;28;45189;-70
2022/08/07 01:07:00;;;;;;;1.48;1.05;;;26.10;35.60;;;;;;5088825;28;45445;-70
2022/08/07 01:09:29;;;;;;;0.80;0.80;;;26.10;35.60;;;;;;5088897;28;45239;-70
2022/08/07 01:11:55;;;;;;;0.60;0.60;;;26.10;35.60;;;;;;5088950;28;45320;-70
2022/08/07 01:14:23;;;;;;;0.63;0.60;;;26.10;35.50;;;;;;5089164;28;45263;-70
2022/08/07 01:16:49;;;;;;;1.08;0.82;;;26.10;35.60;;;;;;5088607;28;46704;-70
2022/08/07 01:19:16;;;;;;;0.68;0.68;;;26.00;35.50;;;;;;5088537;28;45225;-70
2022/08/07 01:21:45;;;;;;;0.88;0.70;;;26.00;35.60;;;;;;5088937;28;45208;-70
2022/08/07 01:24:11;;;;;;;0.88;0.70;;;26.00;35.60;;;;;;5088891;28;45218;-70
2022/08/07 01:26:38;;;;;;;0.90;0.90;;;26.00;35.60;;;;;;5088437;28;45424;-70
2022/08/07 01:29:05;;;;;;;0.70;0.70;;;26.00;35.60;;;;;;5088571;28;45221;-70
2022/08/07 01:31:32;;;;;;;0.80;0.77;;;25.90;35.50;;;;;;5088681;28;45273;-70
2022/08/07 01:33:59;;;;;;;1.17;0.80;;;25.90;35.60;;;;;;5088116;27;45453;-70
2022/08/07 01:36:25;;;;;;;0.70;0.70;;;25.90;35.50;;;;;;5088255;28;46739;-70
2022/08/07 01:38:54;;;;;;;0.75;0.75;;;25.90;35.50;;;;;;5088324;28;45319;-70
2022/08/07 01:41:20;;;;;;;1.00;0.70;;;25.90;35.50;;;;;;5088579;28;45205;-70
2022/08/07 01:43:47;;;;;;;0.70;0.70;;;25.90;35.60;;;;;;5088601;28;45397;-70
2022/08/07 01:46:14;;;;;;;0.93;0.77;;;25.90;35.60;;;;;;5088245;28;45626;-70
2022/08/07 01:48:42;;;;;;;1.27;0.70;;;25.80;35.50;;;;;;5088280;28;45292;-70
2022/08/07 01:51:12;;;;;;;0.60;0.60;;;25.80;35.60;;;;;;5088213;28;45217;-70
2022/08/07 01:53:42;;;;;;;0.60;0.60;;;25.80;35.50;;;;;;5088430;28;45395;-70
2022/08/07 01:56:12;;;;;;;0.70;0.70;;;25.80;35.50;;;;;;5088040;28;46682;-70
2022/08/07 01:58:41;;;;;;;1.08;0.60;;;25.80;35.60;;;;;;5088123;28;45462;-70
2022/08/07 02:01:10;;;;;;;1.40;0.70;;;25.80;35.60;;;;;;5088230;28;45261;-70
2022/08/07 02:03:39;;;;;;;0.90;0.90;;;25.70;35.50;;;;;;5088346;28;45215;-70
2022/08/07 02:06:07;;;;;;;2.13;0.60;;;25.70;35.60;;;;;;5087962;28;46467;-70
2022/08/07 02:08:39;;;;;;;0.80;0.80;;;25.70;35.40;;;;;;5088015;28;45194;-70
2022/08/07 02:11:06;;;;;;;0.70;0.70;;;25.70;35.50;;;;;;5087987;28;45299;-70
2022/08/07 02:13:34;;;;;;;0.63;0.63;;;25.70;35.50;;;;;;5088073;28;45398;-70
2022/08/07 02:16:01;;;;;;;0.70;0.70;;;25.60;35.40;;;;;;5087702;28;45201;-70
2022/08/07 02:18:29;;;;;;;0.73;0.70;;;25.60;35.40;;;;;;5087751;28;45234;-70
2022/08/07 02:20:57;;;;;;;0.70;0.70;;;25.60;35.40;;;;;;5087851;28;45298;-70
2022/08/07 02:23:23;;;;;;;0.85;0.80;;;25.60;35.40;;;;;;5088247;28;45337;-70
2022/08/07 02:25:52;;;;;;;0.82;0.82;;;25.60;35.40;;;;;;5087387;28;45291;-70
2022/08/07 02:28:19;;;;;;;0.68;0.68;;;25.60;35.40;;;;;;5087061;28;45228;-70
2022/08/07 02:30:47;;;;;;;0.73;0.73;;;25.50;35.40;;;;;;5087758;28;45252;-70
2022/08/07 02:33:14;;;;;;;1.10;0.70;;;25.50;35.40;;;;;;5087778;28;45373;-70
2022/08/07 02:35:41;;;;;;;0.50;0.50;;;25.50;35.50;;;;;;5087355;28;46431;-70
2022/08/07 02:38:08;;;;;;;0.52;0.52;;;25.50;35.40;;;;;;5087376;28;45292;-70
2022/08/07 02:40:37;;;;;;;0.85;0.57;;;25.50;35.40;;;;;;5087116;28;45318;-70
2022/08/07 02:43:03;;;;;;;0.50;0.50;;;25.50;36.10;;;;;;5087602;28;45281;-70
2022/08/07 02:45:30;;;;;;;1.48;0.63;;;25.50;35.30;;;;;;5086588;28;46758;-70
2022/08/07 02:47:59;;;;;;;0.57;0.57;;;25.50;35.40;;;;;;5087347;28;45173;-70
2022/08/07 02:50:26;;;;;;;0.73;0.73;;;25.40;36.00;;;;;;5086835;28;45406;-70
2022/08/07 02:52:54;;;;;;;1.38;0.80;;;25.40;35.30;;;;;;5087496;28;45341;-70
2022/08/07 02:55:22;;;;;;;0.70;0.68;;;25.40;35.40;;;;;;5086972;28;45262;-70
2022/08/07 02:57:49;;;;;;;0.52;0.52;;;25.40;35.30;;;;;;5087197;28;45186;-70
2022/08/07 03:00:16;;;;;;;1.08;0.70;;;25.40;35.30;;;;;;5087365;28;45285;-70
2022/08/07 03:02:46;;;;;;;0.70;0.70;;;25.30;35.30;;;;;;5087391;28;45239;-70
2022/08/07 03:05:14;;;;;;;0.63;0.63;;;25.30;35.40;;;;;;5086893;28;46509;-70
2022/08/07 03:07:41;;;;;;;1.38;0.73;;;25.30;35.40;;;;;;5086991;28;45281;-70
2022/08/07 03:10:08;;;;;;;0.60;0.60;;;25.30;35.40;;;;;;5087027;28;45282;-70
2022/08/07 03:12:35;;;;;;;1.35;0.70;;;25.30;35.30;;;;;;5087362;28;45162;-69
2022/08/07 03:15:02;;;;;;;0.57;0.50;;;25.20;35.40;;;;;;5086095;28;46389;-70
2022/08/07 03:17:29;;;;;;;0.65;0.65;;;25.20;35.30;;;;;;5086753;28;45254;-70
2022/08/07 03:19:55;;;;;;;0.90;0.70;;;25.20;35.90;;;;;;5086784;28;45327;-70
2022/08/07 03:22:24;;;;;;;0.50;0.50;;;25.20;35.30;;;;;;5087200;28;45511;-70
2022/08/07 03:24:51;;;;;;;0.68;0.68;;;25.20;35.40;;;;;;5086651;28;46392;-69
2022/08/07 03:27:17;;;;;;;0.77;0.70;;;25.20;35.30;;;;;;5086786;28;45234;-70
2022/08/07 03:29:46;;;;;;;0.60;0.60;;;25.20;35.40;;;;;;5086742;28;45183;-70
2022/08/07 03:32:13;;;;;;;0.85;0.70;;;25.20;35.40;;;;;;5087005;28;45455;-70
2022/08/07 03:34:40;;;;;;;0.70;0.70;;;25.20;35.40;;;;;;5086387;28;46388;-70
2022/08/07 03:37:07;;;;;;;0.68;0.68;;;25.10;35.40;;;;;;5086744;28;45374;-70
2022/08/07 03:39:35;;;;;;;1.17;0.70;;;25.10;35.30;;;;;;5086300;28;45200;-70
2022/08/07 03:42:02;;;;;;;0.60;0.60;;;25.10;35.30;;;;;;5086796;28;45280;-70
2022/08/07 03:44:29;;;;;;;0.82;0.57;;;25.10;35.30;;;;;;5086444;28;46380;-70
2022/08/07 03:46:56;;;;;;;0.85;0.75;;;25.10;35.30;;;;;;5086454;28;45216;-70
2022/08/07 03:49:23;;;;;;;0.70;0.70;;;25.00;35.30;;;;;;5086573;28;45158;-69
2022/08/07 03:51:50;;;;;;;0.68;0.68;;;25.00;35.40;;;;;;5086723;28;45232;-70
2022/08/07 03:54:17;;;;;;;0.50;0.50;;;25.00;35.30;;;;;;5086633;28;45298;-70
2022/08/07 03:56:45;;;;;;;1.17;0.60;;;25.00;35.40;;;;;;5087931;27;45303;-70
2022/08/07 03:59:13;;;;;;;0.60;0.60;;;25.00;35.90;;;;;;5090083;28;45178;-70
2022/08/07 04:01:41;;;;;;;0.60;0.60;;;25.00;35.30;;;;;;5089736;28;45483;-70
2022/08/07 04:04:08;;;;;;;0.70;0.70;;;25.00;35.40;;;;;;5089760;28;45472;-70
2022/08/07 04:06:36;;;;;;;0.82;0.70;;;25.00;35.50;;;;;;5089798;28;45308;-70
2022/08/07 04:09:03;;;;;;;0.60;0.60;;;24.90;35.40;;;;;;5089814;28;45131;-70
2022/08/07 04:11:29;;;;;;;1.92;0.60;;;24.90;35.40;;;;;;5090145;28;45405;-70
2022/08/07 04:13:58;;;;;;;0.70;0.70;;;24.90;35.50;;;;;;5089612;28;46392;-69
2022/08/07 04:16:24;;;;;;;0.70;0.70;;;24.90;35.50;;;;;;5089531;28;45297;-70
2022/08/07 04:18:51;;;;;;;0.43;0.43;;;24.90;35.50;;;;;;5089607;28;45154;-70
2022/08/07 04:21:18;;;;;;;0.60;0.60;;;24.90;35.50;;;;;;5089862;28;45233;-70
2022/08/07 04:23:45;;;;;;;0.52;0.52;;;24.90;35.50;;;;;;5089507;28;47264;-70
2022/08/07 04:26:11;;;;;;;0.80;0.70;;;24.90;35.50;;;;;;5089519;28;45257;-70
2022/08/07 04:28:38;;;;;;;0.60;0.60;;;24.90;35.40;;;;;;5089674;28;45313;-70
2022/08/07 04:31:06;;;;;;;1.38;0.50;;;24.80;35.40;;;;;;5089502;28;45415;-70
2022/08/07 04:33:33;;;;;;;1.77;0.90;;;24.80;35.50;;;;;;5089240;28;45314;-70
2022/08/07 04:36:00;;;;;;;0.52;0.52;;;24.80;35.40;;;;;;5086728;28;45232;-70
2022/08/07 04:38:27;;;;;;;1.10;0.60;;;24.80;35.50;;;;;;5089571;28;45237;-69
2022/08/07 04:40:54;;;;;;;0.55;0.55;;;24.80;35.50;;;;;;5089315;28;45216;-70
2022/08/07 04:43:21;;;;;;;0.70;0.70;;;24.80;35.60;;;;;;5088997;28;45199;-70
2022/08/07 04:45:52;;;;;;;0.60;0.60;;;24.70;35.50;;;;;;5088652;28;45257;-70
2022/08/07 04:48:23;;;;;;;1.27;0.73;;;24.70;35.50;;;;;;5088703;28;45242;-70
2022/08/07 04:51:06;;;;;;;0.50;0.50;;;24.70;35.60;;;;;;5089467;28;45232;-70
2022/08/07 04:53:38;;;;;;;1.33;0.70;;;24.70;36.20;;;;;;5088458;28;46532;-70
2022/08/07 04:56:08;;;;;;;0.68;0.68;;;24.70;35.50;;;;;;5088353;28;45296;-70
2022/08/07 04:58:37;;;;;;;0.75;0.50;;;24.70;35.60;;;;;;5089048;28;45226;-69
2022/08/07 05:01:07;;;;;;;0.60;0.60;;;24.70;35.50;;;;;;5089225;28;45570;-70
2022/08/07 05:03:40;;;;;;;0.73;0.68;;;24.70;35.60;;;;;;5088857;28;45455;-70
2022/08/07 05:06:07;;;;;;;0.52;0.50;;;24.70;35.60;;;;;;5088939;28;45206;-70
2022/08/07 05:08:40;;;;;;;1.98;0.68;;;24.70;35.60;;;;;;5088594;27;45258;-70
2022/08/07 05:11:10;;;;;;;1.08;0.45;;;24.70;35.60;;;;;;5089238;28;45277;-70
2022/08/07 05:13:39;;;;;;;0.77;0.77;;;24.60;35.50;;;;;;5088691;28;46704;-70
2022/08/07 05:16:07;;;;;;;0.50;0.50;;;24.60;35.60;;;;;;5088670;28;45331;-70
2022/08/07 05:18:36;;;;;;;0.70;0.65;;;24.60;35.60;;;;;;5088902;28;45143;-70
2022/08/07 05:21:04;;;;;;;0.85;0.50;;;24.60;35.60;;;;;;5088885;28;45292;-70
2022/08/07 05:23:34;;;;;;;0.50;0.50;;;24.60;35.60;;;;;;5088655;28;46689;-70
2022/08/07 05:26:01;;;;;;;0.40;0.40;;;24.60;35.70;;;;;;5088619;28;45199;-70
2022/08/07 05:28:28;;;;;;;0.80;0.70;;;24.60;35.70;;;;;;5088787;28;45288;-70
2022/08/07 05:30:55;;;;;;;0.70;0.60;;;24.50;35.70;;;;;;5088770;28;45471;-70
2022/08/07 05:33:22;;;;;;;0.82;0.70;;;24.50;35.60;;;;;;5088407;28;45263;-70
2022/08/07 05:35:50;;;;;;;0.60;0.60;;;24.50;35.70;;;;;;5088460;28;45204;-70
2022/08/07 05:38:17;;;;;;;0.50;0.50;;;24.50;35.70;;;;;;5088656;28;45352;-70
2022/08/07 05:40:44;;;;;;;2.15;0.65;;;24.60;35.80;;;;;;5088486;28;45352;-70
2022/08/07 05:43:10;;;;;;;0.73;0.73;;;24.50;35.70;;;;;;5088371;28;46753;-69
2022/08/07 05:45:37;;;;;;;0.90;0.60;;;24.50;35.70;;;;;;5088411;28;45371;-70
2022/08/07 05:48:05;;;;;;;1.75;0.70;;;24.50;35.80;;;;;;5088121;28;45174;-70
2022/08/07 05:50:33;;;;;;;0.57;0.50;;;24.50;35.80;;;;;;5087906;28;45448;-70
2022/08/07 05:53:01;;;;;;;0.60;0.60;;;24.50;35.70;;;;;;5088011;28;45369;-70
2022/08/07 05:55:27;;;;;;;0.70;0.70;;;24.50;35.70;;;;;;5088190;28;45181;-70
2022/08/07 05:57:54;;;;;;;0.52;0.52;;;24.50;35.70;;;;;;5088337;28;45289;-70
2022/08/07 06:00:21;;;;;;;0.60;0.60;;;24.50;35.80;;;;;;5088314;28;45186;-70
2022/08/07 06:02:49;;;;;;;0.57;0.57;;;24.50;35.80;;;;;;5088052;28;46729;-70
2022/08/07 06:05:15;;;;;;;0.50;0.50;;;24.50;35.80;;;;;;5087958;28;45248;-70
2022/08/07 06:07:42;;;;;;;0.77;0.50;;;24.50;35.90;;;;;;5088089;28;45249;-69
2022/08/07 06:10:11;;;;;;;0.80;0.80;;;24.50;35.90;;;;;;5088160;28;45321;-70
2022/08/07 06:12:37;;;;;;;0.75;0.50;;;24.50;35.90;;;;;;5088113;28;47688;-70
2022/08/07 06:15:05;;;;;;;0.70;0.70;;;24.50;35.90;;;;;;5087732;28;45237;-70
2022/08/07 06:17:32;;;;;;;0.45;0.45;;;24.50;35.90;;;;;;5087911;28;45246;-70
2022/08/07 06:19:59;;;;;;;0.50;0.50;;;24.50;35.90;;;;;;5087008;28;45189;-70
2022/08/07 06:22:26;;;;;;;0.50;0.50;;;24.50;35.90;;;;;;5087622;28;47557;-70
2022/08/07 06:24:53;;;;;;;1.65;0.60;;;24.50;36.00;;;;;;5087720;28;45431;-70
2022/08/07 06:27:24;;;;;;;0.70;0.70;;;24.50;36.00;;;;;;5087870;28;45299;-70
2022/08/07 06:29:51;;;;;;;0.50;0.50;;;24.50;36.00;;;;;;5087880;28;45194;-70
2022/08/07 06:32:18;;;;;;;0.57;0.57;;;24.50;36.00;;;;;;5087488;28;46334;-70
2022/08/07 06:34:44;;;;;;;0.60;0.60;;;24.50;36.00;;;;;;5087154;28;45375;-69
2022/08/07 06:37:11;;;;;;;1.45;0.52;;;24.50;36.00;;;;;;5086995;28;45375;-70
2022/08/07 06:39:38;;;;;;;0.60;0.60;;;24.50;36.00;;;;;;5087502;28;45557;-70
2022/08/07 06:42:07;;;;;;;0.52;0.52;;;24.50;36.00;;;;;;5087240;28;46649;-70
2022/08/07 06:44:35;;;;;;;1.15;0.60;;;24.50;36.00;;;;;;5087209;28;45306;-70
2022/08/07 06:47:02;;;;;;;0.40;0.40;;;24.50;36.00;;;;;;5087542;28;45301;-70
2022/08/07 06:49:28;;;;;;;0.60;0.60;;;24.50;36.00;;;;;;5087589;28;45241;-70
2022/08/07 06:51:55;;;;;;;0.55;0.55;;;24.50;36.00;;;;;;5087281;28;47311;-70
2022/08/07 06:54:22;;;;;;;0.75;0.60;;;24.50;36.10;;;;;;5087103;28;45221;-70
2022/08/07 06:56:49;;;;;;;0.50;0.50;;;24.50;36.00;;;;;;5087347;28;45329;-70
2022/08/07 06:59:18;;;;;;;1.48;0.50;;;24.50;36.10;;;;;;5087321;28;45234;-70
2022/08/07 07:01:46;;;;;;;0.65;0.65;;;24.50;36.10;;;;;;5086895;28;45669;-70
2022/08/07 07:04:13;;;;;;;1.73;0.60;;;24.50;36.10;;;;;;5087285;28;45323;-70
2022/08/07 07:06:40;;;;;;;0.82;0.60;;;24.50;36.20;;;;;;5087255;28;45237;-70
2022/08/07 07:09:20;;;;;;;0.98;0.50;;;24.50;36.10;;;;;;5087354;28;45218;-70
2022/08/07 07:11:53;;;;;;;0.50;0.50;;;24.50;36.10;;;;;;5086869;28;46664;-70
2022/08/07 07:14:20;;;;;;;0.40;0.40;;;24.60;36.20;;;;;;5086799;28;45172;-70
2022/08/07 07:16:48;;;;;;;0.45;0.45;;;24.60;36.20;;;;;;5086951;28;45189;-70
2022/08/07 07:19:15;;;;;;;0.90;0.50;;;24.60;36.20;;;;;;5087117;28;45249;-70
2022/08/07 07:21:42;;;;;;;0.93;0.45;;;24.60;36.20;;;;;;5086777;28;45357;-69
2022/08/07 07:24:09;;;;;;;0.60;0.50;;;24.60;36.20;;;;;;5086884;28;45232;-70
2022/08/07 07:26:36;;;;;;;0.60;0.60;;;24.60;36.30;;;;;;5086742;28;45244;-69
2022/08/07 07:29:05;;;;;;;0.70;0.70;;;24.60;36.30;;;;;;5086409;28;45228;-70
2022/08/07 07:31:35;;;;;;;0.47;0.47;;;24.60;36.90;;;;;;5086432;28;45252;-70
2022/08/07 07:34:04;;;;;;;0.68;0.60;;;24.60;36.30;;;;;;5086702;28;45182;-70
2022/08/07 07:36:31;;;;;;;0.50;0.50;;;24.60;36.30;;;;;;5086685;28;45241;-70
2022/08/07 07:38:58;;;;;;;0.75;0.75;;;24.60;36.40;;;;;;5086664;28;45526;-70
2022/08/07 07:41:25;;;;;;;0.68;0.60;;;24.60;36.30;;;;;;5086435;28;46396;-70
2022/08/07 07:43:52;;;;;;;0.60;0.60;;;24.70;36.40;;;;;;5086559;28;45145;-70
2022/08/07 07:46:21;;;;;;;0.65;0.65;;;24.70;36.40;;;;;;5086803;28;45234;-70
2022/08/07 07:48:48;;;;;;;0.70;0.70;;;24.70;36.40;;;;;;5086646;28;45550;-70
2022/08/07 07:51:17;;;;;;;0.50;0.50;;;24.70;36.40;;;;;;5086372;28;47334;-70
2022/08/07 07:53:45;;;;;;;1.45;0.70;;;24.70;37.10;;;;;;5086463;28;45439;-70
2022/08/07 07:56:13;;;;;;;1.48;0.82;;;24.70;36.50;;;;;;5086495;28;45263;-70
2022/08/07 07:58:39;;;;;;;0.57;0.57;;;24.70;36.70;;;;;;5086620;28;45279;-70
2022/08/07 08:01:07;;;;;;;0.50;0.50;;;24.70;36.50;;;;;;5077462;28;45212;-70
2022/08/07 08:03:34;;;;;;;0.43;0.40;;;24.70;36.60;;;;;;5086371;28;45185;-70
2022/08/07 08:06:01;;;;;;;1.42;1.10;;;24.70;36.50;;;;;;5086338;28;45288;-70
2022/08/07 08:08:31;;;;;;;1.73;1.00;;;24.70;37.40;;;;;;5086378;28;45456;-70
2022/08/07 08:10:58;;;;;;;1.17;1.00;;;24.60;37.70;;;;;;5086002;28;45744;-70
2022/08/07 08:13:25;;;;;;;1.67;1.00;;;24.60;37.90;;;;;;5085901;28;45277;-70
2022/08/07 08:15:52;;;;;;;0.73;0.73;;;24.50;38.00;;;;;;5086157;28;45281;-70
2022/08/07 08:18:19;;;;;;;2.53;1.30;;;24.50;38.30;;;;;;5085755;28;45194;-70
2022/08/07 08:20:46;;;;;;;1.90;0.80;;;24.50;38.40;;;;;;5085768;28;45312;-70
2022/08/07 08:28:47;;;;;;;0.90;0.90;;;24.50;38.60;;;;;;5084576;28;45250;-70
2022/08/07 08:31:16;;;;;;;1.52;1.00;;;24.50;38.80;;;;;;5085689;28;45324;-70
2022/08/07 08:33:42;;;;;;;2.15;1.10;;;24.50;39.00;;;;;;5085888;28;45198;-70
2022/08/07 08:36:11;;;;;;;2.13;1.00;;;24.50;38.90;;;;;;5085797;28;45351;-70
2022/08/07 08:38:40;;;;;;;1.60;1.00;;;24.50;38.90;;;;;;5085934;28;45344;-70
2022/08/07 08:41:13;;;;;;;1.85;0.90;;;24.50;39.10;;;;;;5086038;28;47709;-70
2022/08/07 08:43:45;;;;;;;2.75;1.00;;;24.50;39.30;;;;;;5088668;28;45169;-70
2022/08/07 08:46:15;;;;;;;0.85;0.85;;;24.50;39.30;;;;;;5089268;28;45249;-70
2022/08/07 08:48:44;;;;;;;0.88;0.88;;;24.50;39.30;;;;;;5091573;27;45270;-70
2022/08/07 08:51:16;;;;;;;1.05;1.02;;;24.50;39.50;;;;;;5097562;27;46403;-69
2022/08/07 08:53:47;;;;;;;2.35;1.10;;;24.50;39.60;;;;;;5104920;27;45354;-69
2022/08/07 08:56:19;;;;;;;2.60;1.40;;;24.50;39.40;;;;;;5107083;27;45467;-69
2022/08/07 08:58:49;;;;;;;1.23;1.00;;;24.50;39.50;;;;;;5109684;27;45276;-70
2022/08/07 09:01:20;;;;;;;2.60;1.10;;;24.50;39.60;;;;;;5107330;27;46958;-69
2022/08/07 09:03:55;;;;;;;1.80;1.15;;;24.60;39.60;;;;;;5093078;27;45410;-69
2022/08/07 09:06:29;;;;;;;1.55;0.90;;;24.60;39.60;;;;;;5109347;27;45244;-69
2022/08/07 09:09:00;;;;;;;1.38;0.95;;;24.60;39.80;;;;;;5089806;27;45363;-70
2022/08/07 09:11:34;;;;;;;3.65;1.02;;;24.70;39.80;;;;;;5080395;27;45369;-69
2022/08/07 09:14:06;;;;;;;0.95;0.93;;;24.70;40.00;;;;;;5099371;27;45236;-70
2022/08/07 09:16:39;;;;;;;2.50;1.10;;;24.70;39.80;;;;;;5097361;27;45363;-69
2022/08/07 09:19:15;;;;;;;3.08;1.13;;;24.80;39.80;;;;;;5097606;27;45368;-69
2022/08/07 09:21:47;;;;;;;1.17;1.05;;;24.80;39.70;;;;;;5067823;28;46377;-70
2022/08/07 09:24:20;;;;;;;0.90;0.90;;;24.90;39.90;;;;;;5087860;27;45226;-69
2022/08/07 09:26:52;;;;;;;1.10;1.10;;;24.90;39.70;;;;;;5108813;27;45220;-69
2022/08/07 09:29:23;;;;;;;2.40;1.40;;;25.00;39.70;;;;;;5085356;27;45406;-69
2022/08/07 09:31:54;;;;;;;3.63;1.23;;;25.00;39.40;;;;;;5090727;27;46754;-68
2022/08/07 09:34:25;;;;;;;0.98;0.82;;;25.10;39.50;;;;;;5089208;27;45403;-69
2022/08/07 09:36:57;;;;;;;2.00;1.23;;;25.10;40.20;;;;;;5088799;27;45283;-69
2022/08/07 09:39:31;;;;;;;2.60;1.25;;;25.20;39.70;;;;;;5093460;27;45197;-69
2022/08/07 09:42:02;;;;;;;3.13;1.30;;;25.20;39.80;;;;;;5097876;27;46680;-69
2022/08/07 09:44:33;;;;;;;1.85;1.10;;;25.30;40.50;;;;;;5100578;27;45315;-69
2022/08/07 09:47:04;;;;;;;1.45;1.10;;;25.20;40.10;;;;;;5087564;28;45260;-69
2022/08/07 09:49:42;;;;;;;3.00;1.10;;;25.20;40.00;;;;;;5089123;27;45258;-69
2022/08/07 09:52:16;;;;;;;4.45;1.30;;;25.30;40.30;;;;;;5085896;28;45519;-69
2022/08/07 09:54:44;;;;;;;1.15;1.10;;;25.30;40.40;;;;;;5085775;27;45275;-69
2022/08/07 09:57:51;;;;;;;1.10;1.08;;;25.30;40.20;;;;;;5108008;27;45230;-69
2022/08/07 10:00:20;;;;;;;2.25;1.55;;;25.40;40.20;;;;;;5106557;27;45336;-69
2022/08/07 10:03:14;;;;;;;1.88;1.15;;;25.50;40.20;;;;;;5104459;27;46506;-69
2022/08/07 10:06:21;;;;;;;1.35;1.25;;;25.50;40.10;;;;;;5083759;27;46048;-69
2022/08/07 10:09:05;;;;;;;2.50;1.08;;;25.50;40.10;;;;;;5062191;28;45209;-69
2022/08/07 10:11:42;;;;;;;1.80;1.52;;;25.60;39.90;;;;;;5102390;27;45441;-69
2022/08/07 10:14:12;;;;;;;2.85;1.30;;;25.60;40.00;;;;;;5108173;27;45204;-70
2022/08/07 10:17:05;;;;;;;1.42;1.30;;;25.70;40.00;;;;;;5099416;27;45253;-70
2022/08/07 10:19:42;;;;;;;1.42;1.20;;;25.80;39.90;;;;;;5083556;28;45303;-70
2022/08/07 10:22:22;;;;;;;1.55;1.30;;;25.80;39.70;;;;;;5089928;27;45466;-70
2022/08/07 10:25:04;;;;;;;1.27;1.17;;;25.90;39.70;;;;;;5087697;27;46606;-69
2022/08/07 10:27:46;;;;;;;2.08;1.15;;;25.90;39.60;;;;;;5087116;28;45357;-70
2022/08/07 10:30:14;;;;;;;2.13;1.20;;;25.90;39.70;;;;;;5087048;28;45480;-69
2022/08/07 10:33:10;;;;;;;1.15;1.10;;;25.90;39.50;;;;;;5087265;28;45268;-69
2022/08/07 10:35:47;;;;;;;1.67;1.10;;;26.00;39.70;;;;;;5085493;27;45488;-69
2022/08/07 10:38:19;;;;;;;1.23;1.10;;;26.00;39.60;;;;;;5107519;27;45236;-69
2022/08/07 10:40:48;;;;;;;1.85;1.40;;;26.10;39.30;;;;;;5101686;27;45503;-69
2022/08/07 10:43:19;;;;;;;1.42;1.33;;;26.20;39.30;;;;;;5107828;27;45232;-69
2022/08/07 10:45:48;;;;;;;1.45;1.33;;;26.20;39.20;;;;;;5107280;27;45291;-69
2022/08/07 10:48:26;;;;;;;1.92;1.40;;;26.30;39.10;;;;;;5107365;27;45272;-69
2022/08/07 10:50:55;;;;;;;1.50;1.20;;;26.30;39.00;;;;;;5107477;27;45313;-69
2022/08/07 10:53:27;;;;;;;2.40;1.33;;;26.30;39.00;;;;;;5107598;27;45458;-69
2022/08/07 10:56:00;;;;;;;1.45;1.27;;;26.40;38.90;;;;;;5096739;27;45491;-69
2022/08/07 10:58:39;;;;;;;1.77;1.13;;;26.40;38.80;;;;;;5098037;27;45172;-70
2022/08/07 11:01:16;;;;;;;1.42;1.17;;;26.50;38.90;;;;;;5086564;28;45391;-70
2022/08/07 11:03:48;;;;;;;1.02;1.02;;;26.60;38.70;;;;;;5077929;28;45369;-69
2022/08/07 11:06:19;;;;;;;2.55;1.17;;;26.60;38.50;;;;;;5085538;27;45409;-70
2022/08/07 11:08:51;;;;;;;1.30;1.20;;;26.70;38.50;;;;;;5083142;27;45392;-69
2022/08/07 11:11:21;;;;;;;1.13;1.13;;;26.80;38.40;;;;;;5083444;28;45198;-69
2022/08/07 11:13:51;;;;;;;2.45;1.20;;;26.90;38.40;;;;;;5077851;28;45257;-69
2022/08/07 11:16:20;;;;;;;1.60;1.48;;;27.00;38.40;;;;;;5079121;28;47277;-70
2022/08/07 11:18:51;;;;;;;1.30;1.20;;;27.10;38.50;;;;;;5083513;28;45267;-69
2022/08/07 11:21:24;;;;;;;1.27;1.17;;;27.10;37.60;;;;;;5083351;28;45336;-69
2022/08/07 11:23:53;;;;;;;1.70;1.27;;;27.20;37.70;;;;;;5086437;28;45408;-70
2022/08/07 11:26:31;;;;;;;1.13;1.10;;;27.20;37.60;;;;;;5081540;27;46484;-70
2022/08/07 11:29:01;;;;;;;1.15;1.15;;;27.30;37.40;;;;;;5088889;27;45313;-71
2022/08/07 11:31:32;;;;;;;1.33;1.20;;;27.40;37.70;;;;;;5086330;28;45214;-70
2022/08/07 11:34:05;;;;;;;1.35;1.15;;;27.40;37.50;;;;;;5086433;28;45237;-69
2022/08/07 11:36:40;;;;;;;1.15;1.05;;;27.50;37.30;;;;;;5085751;28;45261;-70
2022/08/07 11:39:13;;;;;;;1.40;1.20;;;27.50;36.90;;;;;;5072774;28;45305;-70
2022/08/07 11:41:44;;;;;;;3.40;1.30;;;27.70;37.10;;;;;;5055429;28;45238;-70
2022/08/07 11:44:16;;;;;;;1.40;1.30;;;27.70;36.70;;;;;;5067645;28;45160;-69
2022/08/07 11:46:48;;;;;;;1.60;1.50;;;27.80;36.40;;;;;;5065582;28;45355;-69
2022/08/07 11:49:51;;;;;;;1.27;1.20;;;27.90;36.50;;;;;;5065546;28;45248;-69
2022/08/07 11:52:35;;;;;;;1.60;1.50;;;27.90;36.00;;;;;;5065467;28;45177;-69
2022/08/07 11:55:08;;;;;;;1.10;1.10;;;27.90;36.20;;;;;;5065512;28;45455;-70
2022/08/07 11:57:41;;;;;;;1.40;1.30;;;27.90;36.20;;;;;;5064391;28;45539;-70
2022/08/07 12:00:10;;;;;;;1.30;1.20;;;27.90;36.50;;;;;;5065871;28;45400;-70
2022/08/07 12:03:06;;;;;;;1.42;1.33;;;28.00;36.70;;;;;;5065436;28;45195;-69
2022/08/07 12:05:42;;;;;;;1.80;1.27;;;28.10;36.60;;;;;;5045250;28;45493;-69
2022/08/07 12:08:16;;;;;;;6.75;1.35;;;28.00;35.70;;;;;;5045364;28;46629;-70
2022/08/07 12:10:47;;;;;;;1.50;1.40;;;28.10;35.70;;;;;;5045392;28;45207;-69
2022/08/07 12:13:16;;;;;;;3.20;1.33;;;28.10;35.70;;;;;;5056726;28;45461;-70
2022/08/07 12:15:47;;;;;;;1.48;1.38;;;28.30;35.60;;;;;;5065778;28;45202;-69
2022/08/07 12:18:15;;;;;;;1.45;1.35;;;28.40;35.90;;;;;;5067556;28;47278;-69
2022/08/07 12:20:46;;;;;;;2.63;1.20;;;28.50;35.40;;;;;;5068716;28;45180;-69
2022/08/07 12:23:30;;;;;;;1.40;1.27;;;28.60;35.50;;;;;;5069108;28;45339;-69
2022/08/07 12:26:00;;;;;;;7.90;1.73;;;28.60;35.20;;;;;;5069082;28;45186;-69
2022/08/07 12:28:30;;;;;;;3.47;1.35;;;28.70;35.10;;;;;;5068695;28;46372;-69
2022/08/07 12:30:59;;;;;;;2.10;1.40;;;28.80;34.90;;;;;;5068729;28;45151;-69
2022/08/07 12:33:27;;;;;;;1.35;1.25;;;28.80;34.20;;;;;;5068679;28;45367;-70
2022/08/07 12:35:56;;;;;;;2.03;1.52;;;28.90;34.60;;;;;;5069035;28;45218;-70
2022/08/07 12:38:23;;;;;;;1.27;1.17;;;29.00;34.60;;;;;;5068701;28;46719;-70
2022/08/07 12:40:50;;;;;;;1.20;1.17;;;29.10;34.20;;;;;;5086996;28;45254;-70
2022/08/07 12:43:19;;;;;;;1.70;1.60;;;29.20;33.90;;;;;;5087902;28;45698;-70
2022/08/07 12:45:51;;;;;;;1.40;1.30;;;29.20;34.10;;;;;;5089212;28;45171;-70
2022/08/07 12:48:22;;;;;;;1.20;1.10;;;29.30;33.80;;;;;;5088810;28;46444;-69
2022/08/07 12:50:53;;;;;;;1.30;1.20;;;29.20;33.70;;;;;;5088601;28;45227;-70
2022/08/07 12:53:25;;;;;;;1.42;1.33;;;29.30;33.80;;;;;;5088524;28;45343;-69
2022/08/07 12:55:56;;;;;;;1.55;1.20;;;29.30;33.80;;;;;;5088702;28;45351;-70
2022/08/07 12:58:23;;;;;;;1.80;1.60;;;29.50;33.80;;;;;;5088459;28;46454;-69
2022/08/07 13:00:51;;;;;;;1.30;1.20;;;29.50;33.80;;;;;;5088629;28;45310;-70
2022/08/07 13:03:44;;;;;;;1.65;1.55;;;29.60;33.40;;;;;;5088720;28;45205;-70
2022/08/07 13:06:20;;;;;;;1.50;1.40;;;29.70;33.50;;;;;;5068649;28;45218;-70